Latest Weather Observations for Nhill Aerodrome

IDV60801

Issued at 2:42 am EDT Wednesday 19 February 2020 (issued every 10 minutes, with the page automatically refreshed every 10 minutes)

About weather observations | Map of weather stations | Latest weather observations for VIC | Other Formats
Station Details ID: 078015 Name: NHILL AERODROME Lat: -36.31 Lon: 141.65 Height: 138.9 m
Data from the previous 72 hours. | See also: Recent months at Nhill Aerodrome
Date/Time
EDT
Temp
°C
App
Temp
°C
Dew
Point
°C
Rel
Hum
%
Delta-T
°C
Wind Press
QNH
hPa
Press
MSL
hPa
Rain since
9am
mm
Dir  Spd
km/h
Gust
km/h
Spd
kts
Gust
kts
19/02:30am 13.9 9.7 11.1 83 1.5 SW 24 32 13 17 1012.7 1012.2 0.0
19/02:00am 14.3 9.8 11.3 82 1.6 SSW 26 35 14 19 1013.0 1012.5 0.0
19/01:30am 14.6 9.9 12.1 85 1.4 SW 28 37 15 20 1013.4 1012.8 0.0
19/01:00am 14.5 11.0 12.2 86 1.3 SSW 22 35 12 19 1013.3 1012.7 0.0
19/12:30am 15.3 10.8 11.5 78 2.1 SW 26 39 14 21 1012.9 1012.4 0.0
19/12:00am 15.5 11.6 12.1 80 1.9 SW 24 35 13 19 1012.9 1012.4 0.0
 
Date/Time
EDT
Temp
°C
App
Temp
°C
Dew
Point
°C
Rel
Hum
%
Delta-T
°C
Wind Press
QNH
hPa
Press
MSL
hPa
Rain since
9am
mm
Dir  Spd
km/h
Gust
km/h
Spd
kts
Gust
kts
18/11:30pm 15.5 10.9 12.3 81 1.8 SW 28 37 15 20 1012.9 1012.4 0.0
18/11:00pm 15.2 10.3 12.5 84 1.5 SW 30 37 16 20 1012.9 1012.4 0.0
18/10:30pm 15.6 10.2 12.2 80 1.9 SW 32 44 17 24 1012.7 1012.2 0.0
18/10:03pm 16.0 9.9 11.6 75 2.4 SW 35 56 19 30 1012.6 1012.1 0.0
18/10:00pm 16.1 10.5 11.5 74 2.5 SW 32 46 17 25 1012.5 1012.0 0.0
18/09:30pm 16.7 9.3 11.2 70 3.0 SW 41 54 22 29 1012.1 1011.6 0.0
18/09:00pm 17.3 10.2 10.9 66 3.5 SW 39 54 21 29 1011.7 1011.2 0.0
18/08:30pm 18.0 10.9 10.9 63 3.9 SW 39 54 21 29 1011.1 1010.6 0.0
18/08:00pm 18.6 12.2 10.7 60 4.3 SW 35 52 19 28 1010.8 1010.3 0.0
18/07:30pm 19.2 10.7 10.7 58 4.6 SW 46 61 25 33 1010.4 1009.9 0.0
18/07:09pm 20.4 12.2 10.5 53 5.4 SW 44 63 24 34 1010.0 1009.5 0.0
18/07:00pm 20.1 11.4 9.9 52 5.5 SW 46 56 25 30 1010.0 1009.5 0.0
18/06:30pm 21.3 12.7 10.2 49 6.1 SW 46 61 25 33 1009.6 1009.1 0.0
18/06:00pm 20.9 13.0 10.7 52 5.6 SW 43 52 23 28 1009.3 1008.8 0.0
18/05:30pm 22.1 13.9 10.3 47 6.5 SW 44 57 24 31 1008.8 1008.2 0.0
18/05:13pm 21.6 14.4 11.9 54 5.5 SW 41 59 22 32 1008.9 1008.3 0.0
18/05:00pm 22.3 13.6 10.1 46 6.7 SW 46 59 25 32 1008.8 1008.2 0.0
18/04:44pm 22.6 14.5 10.7 47 6.6 SW 44 63 24 34 1008.8 1008.2 0.0
18/04:30pm 22.9 15.0 11.6 49 6.4 SW 44 59 24 32 1008.6 1008.0 0.0
18/04:22pm 21.8 14.4 11.2 51 5.9 SW 41 59 22 32 1008.7 1008.1 0.0
18/04:00pm 23.8 16.5 11.5 46 7.0 WSW 41 57 22 31 1008.4 1007.8 0.0
18/03:53pm 23.3 15.8 10.7 45 7.0 WSW 41 59 22 32 1008.6 1008.0 0.0
18/03:30pm 21.9 14.0 10.7 49 6.2 WSW 43 56 23 30 1008.6 1008.0 0.0
18/03:00pm 22.5 13.3 10.9 48 6.5 WSW 50 69 27 37 1008.5 1007.9 0.0
18/02:30pm 23.3 14.8 10.7 45 7.0 W 46 65 25 35 1008.2 1007.6 0.0
18/02:16pm 22.8 14.8 10.6 46 6.8 WSW 43 61 23 33 1008.3 1007.7 0.0
18/02:00pm 21.7 13.7 10.5 49 6.2 WSW 43 59 23 32 1008.4 1007.8 0.0
18/01:30pm 22.3 14.1 10.5 47 6.5 WSW 44 59 24 32 1008.3 1007.7 0.0
18/01:00pm 22.1 14.0 10.6 48 6.4 WSW 44 56 24 30 1008.4 1007.8 0.0
18/12:30pm 23.2 15.9 10.3 44 7.1 WSW 39 50 21 27 1008.5 1007.9 0.0
18/12:00pm 22.1 15.2 10.3 47 6.5 WSW 37 48 20 26 1008.8 1008.2 0.0
18/11:45am 21.6 15.0 10.1 48 6.3 WSW 35 54 19 29 1008.8 1008.2 0.0
18/11:30am 22.0 15.5 10.2 47 6.5 WSW 35 50 19 27 1008.9 1008.3 0.0
18/11:00am 20.7 14.6 10.5 52 5.6 WSW 33 43 18 23 1008.8 1008.2 0.0
18/10:30am 19.5 13.6 11.0 58 4.7 WSW 33 44 18 24 1008.9 1008.3 0.0
18/10:00am 19.2 13.8 12.2 64 3.9 SW 32 41 17 22 1008.8 1008.2 0.0
18/09:30am 18.3 13.7 13.4 73 2.8 WSW 30 39 16 21 1008.7 1008.1 0.0
18/09:00am 17.3 12.2 13.0 76 2.4 SW 32 43 17 23 1008.7 1008.1 0.0
18/08:30am 17.0 12.4 13.5 80 2.0 WSW 30 41 16 22 1008.2 1007.6 0.0
18/08:00am 16.7 13.0 14.0 84 1.5 WSW 26 35 14 19 1007.9 1007.3 0.0
18/07:30am 16.9 14.9 14.0 83 1.7 SW 17 26 9 14 1007.4 1006.8 0.0
18/07:00am 17.6 15.7 14.1 80 2.0 SW 17 26 9 14 1007.2 1006.6 0.0
18/06:30am 17.6 15.4 14.3 81 1.9 SW 19 24 10 13 1007.2 1006.6 0.0
18/06:00am 18.2 16.3 14.1 77 2.4 SW 17 22 9 12 1006.7 1006.1 0.0
18/05:30am 18.7 17.2 13.1 70 3.2 WSW 13 19 7 10 1006.6 1006.0 0.0
18/05:00am 19.5 18.8 13.2 67 3.6 W 9 11 5 6 1006.3 1005.7 0.0
18/04:30am 19.9 19.7 12.9 64 4.0 WNW 6 7 3 4 1006.1 1005.5 0.0
18/04:00am 19.8 19.5 12.6 63 4.1 SSE 6 7 3 4 1006.2 1005.6 0.0
18/03:30am 19.6 17.9 12.6 64 4.0 SSE 13 13 7 7 1006.3 1005.7 0.0
18/03:00am 20.9 20.4 12.8 60 4.6 E 7 9 4 5 1006.7 1006.1 0.0
18/02:30am 21.2 21.0 13.1 60 4.7 E 6 9 3 5 1007.1 1006.5 0.0
18/02:00am 21.4 21.1 12.8 58 4.9 E 6 7 3 4 1008.0 1007.4 0.0
18/01:30am 21.3 20.9 13.0 59 4.8 ESE 7 9 4 5 1008.3 1007.7 0.0
18/01:00am 22.0 21.7 13.4 58 5.0 E 7 9 4 5 1008.6 1008.0 0.0
18/12:30am 21.8 20.1 12.6 56 5.3 SE 13 15 7 8 1008.6 1008.0 0.0
18/12:00am 22.4 19.5 12.4 53 5.7 S 19 24 10 13 1008.9 1008.3 0.0
 
Date/Time
EDT
Temp
°C
App
Temp
°C
Dew
Point
°C
Rel
Hum
%
Delta-T
°C
Wind Press
QNH
hPa
Press
MSL
hPa
Rain since
9am
mm
Dir  Spd
km/h
Gust
km/h
Spd
kts
Gust
kts
17/11:30pm 23.1 19.8 11.5 48 6.5 SSW 20 28 11 15 1009.8 1009.3 0.0
17/11:00pm 24.1 20.1 10.4 42 7.6 SW 22 32 12 17 1009.9 1009.4 0.0
17/10:30pm 24.2 20.3 8.6 37 8.4 SW 19 24 10 13 1010.0 1009.5 0.0
17/10:00pm 23.9 20.8 7.1 34 8.8 SW 13 17 7 9 1009.9 1009.4 0.0
17/09:30pm 23.7 20.8 6.5 33 8.9 SSW 11 13 6 7 1009.2 1008.7 0.0
17/09:00pm 25.4 21.7 6.1 29 10.0 SW 15 17 8 9 1009.4 1008.9 0.0
17/08:30pm 26.6 22.5 6.1 27 10.7 SW 17 19 9 10 1009.5 1009.0 0.0
17/08:00pm 28.8 24.2 5.6 23 12.2 SW 19 24 10 13 1009.4 1008.9 0.0
17/07:30pm 29.9 25.9 6.5 23 12.6 SW 17 22 9 12 1009.0 1008.5 0.0
17/07:00pm 30.6 26.4 5.8 21 13.2 SW 17 24 9 13 1008.9 1008.3 0.0
17/06:30pm 30.8 25.8 3.8 18 13.9 SW 19 30 10 16 1009.0 1008.5 0.0
17/06:00pm 30.9 27.0 5.3 20 13.6 SW 15 26 8 14 1008.9 1008.3 0.0
17/05:30pm 31.2 27.3 7.0 22 13.2 SW 17 26 9 14 1009.0 1008.5 0.0
17/05:00pm 31.0 27.1 8.7 25 12.5 SW 19 26 10 14 1009.1 1008.6 0.0
17/04:30pm 30.6 28.2 10.0 28 11.7 S 13 26 7 14 1009.1 1008.6 0.0
17/04:00pm 30.2 26.7 10.2 29 11.4 SSW 19 30 10 16 1009.6 1009.1 0.0
17/03:30pm 30.5 27.5 10.5 29 11.5 SW 17 28 9 15 1010.0 1009.5 0.0
17/03:00pm 29.1 26.1 10.7 32 10.5 SW 17 28 9 15 1010.3 1009.8 0.0
17/02:30pm 29.3 26.4 10.9 32 10.6 SSW 17 26 9 14 1010.6 1010.1 0.0
17/02:00pm 28.0 25.9 11.1 35 9.7 SW 13 24 7 13 1010.8 1010.3 0.0
17/01:30pm 27.5 24.6 11.1 36 9.4 WSW 17 30 9 16 1011.3 1010.8 0.0
17/01:00pm 27.3 24.9 11.3 37 9.2 WSW 15 20 8 11 1011.6 1011.1 0.0
17/12:30pm 26.8 25.4 12.1 40 8.5 W 11 20 6 11 1011.8 1011.3 0.0
17/12:00pm 26.3 25.3 13.4 45 7.6 WSW 11 19 6 10 1011.9 1011.4 0.0
17/11:30am 24.9 23.6 13.8 50 6.6 WSW 13 20 7 11 1012.0 1011.5 0.0
17/11:00am 23.6 22.8 15.1 59 5.1 WSW 13 22 7 12 1012.2 1011.7 0.0
17/10:30am 22.2 21.0 15.1 64 4.2 WSW 15 20 8 11 1012.5 1012.0 0.0
17/10:00am 20.7 20.2 15.0 70 3.4 W 11 15 6 8 1012.6 1012.1 0.0
17/09:30am 19.0 19.3 15.1 78 2.3 SW 7 9 4 5 1012.5 1012.0 0.0
17/09:00am 17.1 16.9 14.7 86 1.4 SW 9 11 5 6 1012.4 1011.9 0.0
17/08:30am 15.9 16.0 14.4 91 0.9 WSW 7 7 4 4 1012.2 1011.7 0.0
17/08:00am 15.3 16.6 14.0 92 0.7 CALM 0 0 0 0 1012.0 1011.5 0.0
17/07:30am 14.8 14.8 13.5 92 0.7 WSW 6 7 3 4 1011.9 1011.4 0.0
17/07:00am 14.7 14.9 13.2 91 0.8 SSW 4 6 2 3 1011.5 1011.0 0.0
17/06:30am 14.9 14.8 13.3 90 0.9 SSW 6 7 3 4 1011.2 1010.7 0.0
17/06:00am 15.2 15.9 13.4 89 1.0 SSW 2 7 1 4 1011.1 1010.6 0.0
17/05:30am 15.4 15.4 13.6 89 1.0 SSW 6 7 3 4 1010.8 1010.3 0.0
17/05:00am 15.6 15.6 13.6 88 1.1 SSW 6 6 3 3 1010.9 1010.4 0.0
17/04:30am 15.8 16.6 13.6 87 1.2 SSW 2 7 1 4 1010.8 1010.3 0.0
17/04:00am 16.4 17.7 14.1 86 1.3 CALM 0 0 0 0 1010.8 1010.3 0.0
17/03:30am 16.6 17.9 14.1 85 1.4 CALM 0 0 0 0 1011.1 1010.6 0.0
17/03:00am 16.7 16.9 14.2 85 1.4 SSW 6 7 3 4 1011.2 1010.7 0.0
17/02:30am 17.1 17.2 14.4 84 1.6 SSW 7 9 4 5 1011.6 1011.1 0.0
17/02:00am 17.6 17.4 14.7 83 1.7 SSW 9 11 5 6 1011.8 1011.3 0.0
17/01:30am 17.5 16.8 14.4 82 1.8 S 11 13 6 7 1011.9 1011.4 0.0
17/01:00am 18.0 17.4 14.5 80 2.0 S 11 15 6 8 1011.7 1011.2 0.0
17/12:30am 18.7 18.1 14.6 77 2.4 SSW 11 13 6 7 1011.9 1011.4 0.0
17/12:00am 19.5 18.5 14.5 73 2.9 SSW 13 17 7 9 1011.9 1011.4 0.0
 
Date/Time
EDT
Temp
°C
App
Temp
°C
Dew
Point
°C
Rel
Hum
%
Delta-T
°C
Wind Press
QNH
hPa
Press
MSL
hPa
Rain since
9am
mm
Dir  Spd
km/h
Gust
km/h
Spd
kts
Gust
kts
16/11:30pm 20.0 19.2 14.1 69 3.4 SW 11 13 6 7 1012.1 1011.6 0.0
16/11:00pm 20.6 19.7 13.6 64 4.0 SW 11 15 6 8 1012.1 1011.6 0.0
16/10:30pm 21.9 19.9 12.7 56 5.3 SW 15 19 8 10 1011.9 1011.4 0.0
16/10:00pm 22.3 20.3 11.4 50 6.1 W 13 17 7 9 1011.7 1011.2 0.0
16/09:30pm 22.9 20.8 11.0 47 6.6 W 13 15 7 8 1011.3 1010.8 0.0
16/09:00pm 23.8 21.6 10.8 44 7.3 W 13 15 7 8 1011.0 1010.5 0.0
16/08:30pm 25.2 22.6 10.6 40 8.2 W 15 17 8 9 1010.8 1010.3 0.0
16/08:00pm 26.5 23.0 10.2 36 9.2 W 19 22 10 12 1010.6 1010.1 0.0
16/07:30pm 26.9 24.2 10.2 35 9.4 WNW 15 20 8 11 1010.4 1009.9 0.0
16/07:00pm 27.6 25.5 9.9 33 9.9 W 11 15 6 8 1010.3 1009.8 0.0
16/06:30pm 27.3 25.3 10.1 34 9.7 SW 11 17 6 9 1010.3 1009.8 0.0
16/06:00pm 27.5 26.2 9.8 33 9.9 WNW 7 11 4 6 1010.4 1009.9 0.0
16/05:30pm 28.1 26.3 10.8 34 9.9 SSW 11 22 6 12 1010.6 1010.1 0.0
16/05:00pm 28.0 26.0 11.5 35 9.5 WSW 13 20 7 11 1010.7 1010.2 0.0
16/04:30pm 27.3 24.9 11.3 37 9.2 S 15 20 8 11 1011.0 1010.5 0.0
16/04:00pm 28.4 26.1 11.9 36 9.6 W 15 26 8 14 1011.3 1010.8 0.0
16/03:30pm 27.1 24.6 12.3 39 8.6 WSW 17 28 9 15 1011.6 1011.1 0.0
16/03:00pm 26.5 24.8 12.5 41 8.2 W 13 26 7 14 1012.0 1011.5 0.0
16/02:30pm 25.8 23.8 12.6 44 7.7 W 15 28 8 15 1012.1 1011.6 0.0
16/02:00pm 25.2 23.9 12.4 45 7.4 S 11 20 6 11 1012.4 1011.9 0.0
16/01:30pm 23.9 22.6 12.5 49 6.6 WSW 11 17 6 9 1012.6 1012.1 0.0
16/01:00pm 23.3 21.2 12.3 50 6.3 SW 15 22 8 12 1013.2 1012.6 0.0
16/12:30pm 22.4 21.1 12.4 53 5.7 WSW 11 22 6 12 1013.5 1012.9 0.0
16/12:00pm 21.8 20.1 12.4 55 5.4 SSW 13 22 7 12 1013.8 1013.2 0.0
16/11:30am 20.6 19.2 12.3 59 4.7 S 11 20 6 11 1014.0 1013.4 0.0
16/11:00am 19.6 17.7 11.9 61 4.3 SSE 13 20 7 11 1014.2 1013.6 0.0
16/10:30am 18.4 16.4 11.5 64 3.8 S 13 20 7 11 1014.3 1013.7 0.0
16/10:00am 17.4 15.3 11.2 67 3.4 S 13 19 7 10 1014.4 1013.8 0.0
16/09:30am 16.7 13.9 11.2 70 3.0 S 17 22 9 12 1014.3 1013.7 0.0
16/09:00am 15.2 11.7 10.8 75 2.3 S 20 28 11 15 1014.5 1013.9 0.0
16/08:30am 14.7 11.3 11.3 80 1.8 S 20 24 11 13 1014.5 1013.9 0.0
16/08:00am 13.5 11.3 10.9 84 1.4 S 13 20 7 11 1014.2 1013.6 0.0
16/07:30am 12.5 10.5 10.2 86 1.2 S 11 15 6 8 1013.9 1013.3 0.0
16/07:00am 12.7 10.0 10.2 85 1.3 S 15 19 8 10 1013.4 1012.8 0.0
16/06:30am 13.0 10.3 10.4 84 1.4 SSE 15 19 8 10 1013.0 1012.5 0.0
16/06:00am 13.3 10.3 10.8 85 1.3 SSE 17 24 9 13 1012.6 1012.1 0.0
16/05:30am 13.7 9.5 11.0 84 1.4 S 24 30 13 16 1012.5 1012.0 0.0
16/05:00am 13.9 9.0 11.2 84 1.4 S 28 37 15 20 1012.5 1012.0 0.0
16/04:30am 13.6 10.4 11.3 86 1.2 S 19 26 10 14 1012.7 1012.2 0.0
16/04:00am 13.3 10.4 11.0 86 1.2 S 17 20 9 11 1012.9 1012.4 0.0
16/03:30am 13.7 10.3 11.4 86 1.2 S 20 26 11 14 1012.9 1012.4 0.0
16/03:00am 13.6 10.5 11.5 87 1.1 S 19 22 10 12 1013.0 1012.5 0.0

Other formats

Comma delimited format used in spreadsheet applications
http://www.bom.gov.au/fwo/IDV60801/IDV60801.94827.axf

JavaScript Object Notation format (JSON) in row-major order
http://www.bom.gov.au/fwo/IDV60801/IDV60801.94827.json

Data quality

Most of these data are generated automatically and are frequently updated. Quality checks on data are not normally performed. It is possible for incorrect values to appear. Refer to information at About Latest Weather Observations and please check the disclaimer before using these data.